sensor_id;sensor_type;location;lat;lon;timestamp;temperature;humidity
22173;DHT22;11252;50.596;17.648;2023-02-15T00:00:07;0.10;92.20
22173;DHT22;11252;50.596;17.648;2023-02-15T00:02:37;0.10;92.20
22173;DHT22;11252;50.596;17.648;2023-02-15T00:05:05;0.10;92.20
22173;DHT22;11252;50.596;17.648;2023-02-15T00:07:33;0.10;92.20
22173;DHT22;11252;50.596;17.648;2023-02-15T00:10:00;0.00;92.20
22173;DHT22;11252;50.596;17.648;2023-02-15T00:12:28;-0.10;92.20
22173;DHT22;11252;50.596;17.648;2023-02-15T00:14:55;-0.20;92.20
22173;DHT22;11252;50.596;17.648;2023-02-15T00:17:22;-0.20;92.20
22173;DHT22;11252;50.596;17.648;2023-02-15T00:19:49;-0.10;92.20
22173;DHT22;11252;50.596;17.648;2023-02-15T00:22:17;-0.10;92.20
22173;DHT22;11252;50.596;17.648;2023-02-15T00:24:44;-0.20;92.20
22173;DHT22;11252;50.596;17.648;2023-02-15T00:27:11;-0.10;92.20
22173;DHT22;11252;50.596;17.648;2023-02-15T00:29:39;-0.20;92.20
22173;DHT22;11252;50.596;17.648;2023-02-15T00:32:07;-0.30;92.20
22173;DHT22;11252;50.596;17.648;2023-02-15T00:34:34;-0.20;92.20
22173;DHT22;11252;50.596;17.648;2023-02-15T00:37:02;-0.30;92.20
22173;DHT22;11252;50.596;17.648;2023-02-15T00:39:29;-0.40;92.20
22173;DHT22;11252;50.596;17.648;2023-02-15T00:41:56;-0.40;92.20
22173;DHT22;11252;50.596;17.648;2023-02-15T00:44:23;-0.40;92.20
22173;DHT22;11252;50.596;17.648;2023-02-15T00:46:51;-0.50;92.20
22173;DHT22;11252;50.596;17.648;2023-02-15T00:49:18;-0.50;92.20
22173;DHT22;11252;50.596;17.648;2023-02-15T00:51:45;-0.50;92.20
22173;DHT22;11252;50.596;17.648;2023-02-15T00:54:12;-0.60;92.20
22173;DHT22;11252;50.596;17.648;2023-02-15T00:56:40;-0.60;92.20
22173;DHT22;11252;50.596;17.648;2023-02-15T00:59:08;-0.60;92.20
22173;DHT22;11252;50.596;17.648;2023-02-15T01:01:36;-0.70;92.20
22173;DHT22;11252;50.596;17.648;2023-02-15T01:04:03;-0.70;92.20
22173;DHT22;11252;50.596;17.648;2023-02-15T01:06:30;-0.70;92.20
22173;DHT22;11252;50.596;17.648;2023-02-15T01:08:58;-0.70;92.20
22173;DHT22;11252;50.596;17.648;2023-02-15T01:11:25;-0.70;92.20
22173;DHT22;11252;50.596;17.648;2023-02-15T01:13:55;-0.80;92.20
22173;DHT22;11252;50.596;17.648;2023-02-15T01:16:25;-0.80;92.20
22173;DHT22;11252;50.596;17.648;2023-02-15T01:18:53;-0.80;92.20
22173;DHT22;11252;50.596;17.648;2023-02-15T01:21:23;-0.80;92.20
22173;DHT22;11252;50.596;17.648;2023-02-15T01:23:51;-0.80;92.20
22173;DHT22;11252;50.596;17.648;2023-02-15T01:26:18;-0.90;92.20
22173;DHT22;11252;50.596;17.648;2023-02-15T01:28:46;-0.90;92.20
22173;DHT22;11252;50.596;17.648;2023-02-15T01:31:15;-0.90;92.20
22173;DHT22;11252;50.596;17.648;2023-02-15T01:33:44;-1.00;92.20
22173;DHT22;11252;50.596;17.648;2023-02-15T01:36:12;-1.10;92.20
22173;DHT22;11252;50.596;17.648;2023-02-15T01:38:40;-1.10;92.20
22173;DHT22;11252;50.596;17.648;2023-02-15T01:41:07;-1.10;92.20
22173;DHT22;11252;50.596;17.648;2023-02-15T01:43:58;-1.10;92.20
22173;DHT22;11252;50.596;17.648;2023-02-15T01:46:43;-1.10;92.20
22173;DHT22;11252;50.596;17.648;2023-02-15T01:49:19;-1.20;92.20
22173;DHT22;11252;50.596;17.648;2023-02-15T01:51:49;-1.20;92.20
22173;DHT22;11252;50.596;17.648;2023-02-15T01:54:23;-1.20;92.20
22173;DHT22;11252;50.596;17.648;2023-02-15T01:56:55;-1.30;92.20
22173;DHT22;11252;50.596;17.648;2023-02-15T01:59:25;-1.30;92.20
22173;DHT22;11252;50.596;17.648;2023-02-15T02:01:55;-1.30;92.20
22173;DHT22;11252;50.596;17.648;2023-02-15T02:07:04;-1.40;92.20
22173;DHT22;11252;50.596;17.648;2023-02-15T02:09:32;-1.30;92.20
22173;DHT22;11252;50.596;17.648;2023-02-15T02:11:59;-1.40;92.20
22173;DHT22;11252;50.596;17.648;2023-02-15T02:14:27;-1.40;92.20
22173;DHT22;11252;50.596;17.648;2023-02-15T02:28:40;-1.50;92.20
22173;DHT22;11252;50.596;17.648;2023-02-15T02:31:48;-1.50;92.20
22173;DHT22;11252;50.596;17.648;2023-02-15T02:34:46;-1.60;92.20
22173;DHT22;11252;50.596;17.648;2023-02-15T02:42:54;-1.70;92.20
22173;DHT22;11252;50.596;17.648;2023-02-15T02:45:30;-1.70;92.20
22173;DHT22;11252;50.596;17.648;2023-02-15T02:48:04;-1.70;92.20
22173;DHT22;11252;50.596;17.648;2023-02-15T02:50:32;-1.70;92.20
22173;DHT22;11252;50.596;17.648;2023-02-15T02:53:00;-1.70;92.20
22173;DHT22;11252;50.596;17.648;2023-02-15T02:55:43;-1.70;92.20
22173;DHT22;11252;50.596;17.648;2023-02-15T02:58:22;-1.80;92.20
22173;DHT22;11252;50.596;17.648;2023-02-15T03:00:57;-1.80;92.20
22173;DHT22;11252;50.596;17.648;2023-02-15T03:03:49;-1.90;92.20
22173;DHT22;11252;50.596;17.648;2023-02-15T03:06:21;-1.90;92.20
22173;DHT22;11252;50.596;17.648;2023-02-15T03:08:55;-1.90;92.20
22173;DHT22;11252;50.596;17.648;2023-02-15T03:11:25;-1.90;92.20
22173;DHT22;11252;50.596;17.648;2023-02-15T03:13:53;-2.00;92.20
22173;DHT22;11252;50.596;17.648;2023-02-15T03:16:22;-2.00;92.20
22173;DHT22;11252;50.596;17.648;2023-02-15T03:19:17;-2.00;92.20
22173;DHT22;11252;50.596;17.648;2023-02-15T03:21:51;-2.00;92.20
22173;DHT22;11252;50.596;17.648;2023-02-15T03:24:59;-2.00;92.20
22173;DHT22;11252;50.596;17.648;2023-02-15T03:27:32;-2.10;92.20
22173;DHT22;11252;50.596;17.648;2023-02-15T03:30:02;-2.10;92.20
22173;DHT22;11252;50.596;17.648;2023-02-15T03:32:32;-2.10;92.20
22173;DHT22;11252;50.596;17.648;2023-02-15T03:35:01;-2.10;92.20
22173;DHT22;11252;50.596;17.648;2023-02-15T03:37:41;-2.10;92.20
22173;DHT22;11252;50.596;17.648;2023-02-15T03:40:29;-2.10;92.20
22173;DHT22;11252;50.596;17.648;2023-02-15T03:44:08;-2.10;92.20
22173;DHT22;11252;50.596;17.648;2023-02-15T03:50:05;-2.10;92.20
22173;DHT22;11252;50.596;17.648;2023-02-15T03:52:14;-2.10;92.20
22173;DHT22;11252;50.596;17.648;2023-02-15T03:54:43;-2.20;92.20
22173;DHT22;11252;50.596;17.648;2023-02-15T03:57:20;-2.20;92.20
22173;DHT22;11252;50.596;17.648;2023-02-15T04:00:22;-2.30;92.20
22173;DHT22;11252;50.596;17.648;2023-02-15T04:05:43;-2.30;92.20
22173;DHT22;11252;50.596;17.648;2023-02-15T04:08:12;-2.30;92.20
22173;DHT22;11252;50.596;17.648;2023-02-15T04:10:39;-2.30;92.20
22173;DHT22;11252;50.596;17.648;2023-02-15T04:13:39;-2.40;92.20
22173;DHT22;11252;50.596;17.648;2023-02-15T04:16:06;-2.40;92.20
22173;DHT22;11252;50.596;17.648;2023-02-15T04:18:39;-2.40;92.20
22173;DHT22;11252;50.596;17.648;2023-02-15T04:21:28;-2.40;92.20
22173;DHT22;11252;50.596;17.648;2023-02-15T04:24:15;-2.40;92.20
22173;DHT22;11252;50.596;17.648;2023-02-15T04:27:01;-2.40;92.20
22173;DHT22;11252;50.596;17.648;2023-02-15T04:29:30;-2.50;92.20
22173;DHT22;11252;50.596;17.648;2023-02-15T04:31:59;-2.50;92.20
22173;DHT22;11252;50.596;17.648;2023-02-15T04:34:26;-2.50;92.20
22173;DHT22;11252;50.596;17.648;2023-02-15T04:36:53;-2.50;92.20
22173;DHT22;11252;50.596;17.648;2023-02-15T04:39:21;-2.60;92.20
22173;DHT22;11252;50.596;17.648;2023-02-15T04:41:48;-2.60;92.20
22173;DHT22;11252;50.596;17.648;2023-02-15T04:44:16;-2.60;92.20
22173;DHT22;11252;50.596;17.648;2023-02-15T04:46:44;-2.60;92.20
22173;DHT22;11252;50.596;17.648;2023-02-15T04:49:11;-2.60;92.20
22173;DHT22;11252;50.596;17.648;2023-02-15T04:51:38;-2.60;92.20
22173;DHT22;11252;50.596;17.648;2023-02-15T04:54:05;-2.60;92.20
22173;DHT22;11252;50.596;17.648;2023-02-15T04:56:33;-2.70;92.20
22173;DHT22;11252;50.596;17.648;2023-02-15T04:59:01;-2.70;92.20
22173;DHT22;11252;50.596;17.648;2023-02-15T05:01:29;-2.70;92.20
22173;DHT22;11252;50.596;17.648;2023-02-15T05:03:56;-2.70;92.20
22173;DHT22;11252;50.596;17.648;2023-02-15T05:06:24;-2.70;92.20
22173;DHT22;11252;50.596;17.648;2023-02-15T05:08:52;-2.80;92.20
22173;DHT22;11252;50.596;17.648;2023-02-15T05:11:19;-2.80;92.20
22173;DHT22;11252;50.596;17.648;2023-02-15T05:13:47;-2.80;92.20
22173;DHT22;11252;50.596;17.648;2023-02-15T05:16:14;-2.80;92.20
22173;DHT22;11252;50.596;17.648;2023-02-15T05:18:41;-2.80;92.20
22173;DHT22;11252;50.596;17.648;2023-02-15T05:21:09;-2.80;92.20
22173;DHT22;11252;50.596;17.648;2023-02-15T05:23:37;-2.90;92.20
22173;DHT22;11252;50.596;17.648;2023-02-15T05:26:05;-2.90;92.20
22173;DHT22;11252;50.596;17.648;2023-02-15T05:28:51;-2.90;92.20
22173;DHT22;11252;50.596;17.648;2023-02-15T05:31:19;-2.90;92.20
22173;DHT22;11252;50.596;17.648;2023-02-15T05:33:47;-2.90;92.20
22173;DHT22;11252;50.596;17.648;2023-02-15T05:36:14;-2.90;92.20
22173;DHT22;11252;50.596;17.648;2023-02-15T05:38:42;-2.90;92.20
22173;DHT22;11252;50.596;17.648;2023-02-15T05:41:10;-3.00;92.20
22173;DHT22;11252;50.596;17.648;2023-02-15T05:43:38;-3.00;92.20
22173;DHT22;11252;50.596;17.648;2023-02-15T05:46:06;-3.00;92.20
22173;DHT22;11252;50.596;17.648;2023-02-15T05:48:34;-3.00;92.20
22173;DHT22;11252;50.596;17.648;2023-02-15T05:51:07;-3.00;92.20
22173;DHT22;11252;50.596;17.648;2023-02-15T05:53:37;-3.00;92.20
22173;DHT22;11252;50.596;17.648;2023-02-15T05:56:06;-3.00;92.20
22173;DHT22;11252;50.596;17.648;2023-02-15T05:58:39;-3.00;92.20
22173;DHT22;11252;50.596;17.648;2023-02-15T06:01:11;-3.00;92.20
22173;DHT22;11252;50.596;17.648;2023-02-15T06:03:40;-2.90;92.20
22173;DHT22;11252;50.596;17.648;2023-02-15T06:06:07;-3.00;92.20
22173;DHT22;11252;50.596;17.648;2023-02-15T06:08:36;-2.90;92.20
22173;DHT22;11252;50.596;17.648;2023-02-15T06:11:04;-2.90;92.20
22173;DHT22;11252;50.596;17.648;2023-02-15T06:13:33;-2.90;92.20
22173;DHT22;11252;50.596;17.648;2023-02-15T06:16:04;-2.90;92.20
22173;DHT22;11252;50.596;17.648;2023-02-15T06:18:32;-2.90;92.20
22173;DHT22;11252;50.596;17.648;2023-02-15T06:20:59;-2.90;92.20
22173;DHT22;11252;50.596;17.648;2023-02-15T06:23:27;-2.90;92.20
22173;DHT22;11252;50.596;17.648;2023-02-15T06:25:54;-2.80;92.20
22173;DHT22;11252;50.596;17.648;2023-02-15T06:28:22;-2.80;92.20
22173;DHT22;11252;50.596;17.648;2023-02-15T06:30:49;-2.80;92.20
22173;DHT22;11252;50.596;17.648;2023-02-15T06:33:16;-2.80;92.20
22173;DHT22;11252;50.596;17.648;2023-02-15T06:35:44;-2.80;92.20
22173;DHT22;11252;50.596;17.648;2023-02-15T06:38:12;-2.80;92.20
22173;DHT22;11252;50.596;17.648;2023-02-15T06:40:39;-2.80;92.20
22173;DHT22;11252;50.596;17.648;2023-02-15T06:43:06;-2.80;92.20
22173;DHT22;11252;50.596;17.648;2023-02-15T06:45:34;-2.70;92.20
22173;DHT22;11252;50.596;17.648;2023-02-15T06:48:01;-2.70;92.20
22173;DHT22;11252;50.596;17.648;2023-02-15T06:50:28;-2.70;92.20
22173;DHT22;11252;50.596;17.648;2023-02-15T06:52:57;-2.60;92.20
22173;DHT22;11252;50.596;17.648;2023-02-15T06:55:25;-2.60;92.20
22173;DHT22;11252;50.596;17.648;2023-02-15T06:57:52;-2.60;92.20
22173;DHT22;11252;50.596;17.648;2023-02-15T07:00:20;-2.50;92.20
22173;DHT22;11252;50.596;17.648;2023-02-15T07:02:59;-2.50;92.20
22173;DHT22;11252;50.596;17.648;2023-02-15T07:05:27;-2.40;92.20
22173;DHT22;11252;50.596;17.648;2023-02-15T07:07:59;-2.40;92.20
22173;DHT22;11252;50.596;17.648;2023-02-15T07:10:27;-2.30;92.20
22173;DHT22;11252;50.596;17.648;2023-02-15T07:12:54;-2.30;92.20
22173;DHT22;11252;50.596;17.648;2023-02-15T07:15:22;-2.20;92.20
22173;DHT22;11252;50.596;17.648;2023-02-15T07:17:51;-2.10;92.20
22173;DHT22;11252;50.596;17.648;2023-02-15T07:20:22;-2.00;92.20
22173;DHT22;11252;50.596;17.648;2023-02-15T07:22:50;-2.00;92.20
22173;DHT22;11252;50.596;17.648;2023-02-15T07:25:18;-1.90;92.20
22173;DHT22;11252;50.596;17.648;2023-02-15T07:27:45;-1.80;92.20
22173;DHT22;11252;50.596;17.648;2023-02-15T07:30:15;-1.80;92.20
22173;DHT22;11252;50.596;17.648;2023-02-15T07:32:43;-1.70;92.20
22173;DHT22;11252;50.596;17.648;2023-02-15T07:35:32;-1.60;92.20
22173;DHT22;11252;50.596;17.648;2023-02-15T07:38:00;-1.50;92.20
22173;DHT22;11252;50.596;17.648;2023-02-15T07:40:28;-1.40;92.20
22173;DHT22;11252;50.596;17.648;2023-02-15T07:42:57;-1.10;92.20
22173;DHT22;11252;50.596;17.648;2023-02-15T07:45:26;-1.00;92.20
22173;DHT22;11252;50.596;17.648;2023-02-15T07:47:53;-0.90;92.20
22173;DHT22;11252;50.596;17.648;2023-02-15T07:50:21;-0.80;92.20
22173;DHT22;11252;50.596;17.648;2023-02-15T07:52:49;-0.70;92.20
22173;DHT22;11252;50.596;17.648;2023-02-15T07:55:16;-0.60;92.20
22173;DHT22;11252;50.596;17.648;2023-02-15T07:57:47;-0.50;92.20
22173;DHT22;11252;50.596;17.648;2023-02-15T08:00:19;-0.30;92.20
22173;DHT22;11252;50.596;17.648;2023-02-15T08:02:52;-0.10;92.20
22173;DHT22;11252;50.596;17.648;2023-02-15T08:05:41;0.10;92.20
22173;DHT22;11252;50.596;17.648;2023-02-15T08:08:10;0.30;92.20
22173;DHT22;11252;50.596;17.648;2023-02-15T08:14:18;0.60;92.20
22173;DHT22;11252;50.596;17.648;2023-02-15T08:16:55;0.60;92.20
22173;DHT22;11252;50.596;17.648;2023-02-15T08:19:31;0.80;92.20
22173;DHT22;11252;50.596;17.648;2023-02-15T08:22:06;0.80;92.20
22173;DHT22;11252;50.596;17.648;2023-02-15T08:24:36;0.80;92.20
22173;DHT22;11252;50.596;17.648;2023-02-15T08:27:08;0.90;92.20
22173;DHT22;11252;50.596;17.648;2023-02-15T08:29:36;0.90;92.20
22173;DHT22;11252;50.596;17.648;2023-02-15T08:32:07;1.00;92.20
22173;DHT22;11252;50.596;17.648;2023-02-15T08:34:38;1.20;92.20
22173;DHT22;11252;50.596;17.648;2023-02-15T08:37:06;1.50;92.20
22173;DHT22;11252;50.596;17.648;2023-02-15T08:39:33;1.60;92.20
22173;DHT22;11252;50.596;17.648;2023-02-15T08:42:01;1.90;92.20
22173;DHT22;11252;50.596;17.648;2023-02-15T08:44:28;2.10;92.20
22173;DHT22;11252;50.596;17.648;2023-02-15T08:46:56;2.20;92.20
22173;DHT22;11252;50.596;17.648;2023-02-15T08:49:29;2.40;92.20
22173;DHT22;11252;50.596;17.648;2023-02-15T08:51:56;3.10;92.20
22173;DHT22;11252;50.596;17.648;2023-02-15T08:54:24;3.70;92.20
22173;DHT22;11252;50.596;17.648;2023-02-15T08:56:51;4.20;92.20
22173;DHT22;11252;50.596;17.648;2023-02-15T08:59:22;4.70;92.20
22173;DHT22;11252;50.596;17.648;2023-02-15T09:01:51;5.00;92.20
22173;DHT22;11252;50.596;17.648;2023-02-15T09:04:19;5.30;92.20
22173;DHT22;11252;50.596;17.648;2023-02-15T09:06:49;5.60;92.20
22173;DHT22;11252;50.596;17.648;2023-02-15T09:09:17;5.50;92.20
22173;DHT22;11252;50.596;17.648;2023-02-15T09:11:48;5.70;92.20
22173;DHT22;11252;50.596;17.648;2023-02-15T09:14:22;6.20;92.20
22173;DHT22;11252;50.596;17.648;2023-02-15T09:16:52;6.70;92.20
22173;DHT22;11252;50.596;17.648;2023-02-15T09:19:23;6.90;92.20
22173;DHT22;11252;50.596;17.648;2023-02-15T09:21:51;6.90;92.20
22173;DHT22;11252;50.596;17.648;2023-02-15T09:24:18;7.20;92.20
22173;DHT22;11252;50.596;17.648;2023-02-15T09:26:47;7.10;92.20
22173;DHT22;11252;50.596;17.648;2023-02-15T09:29:16;7.00;92.20
22173;DHT22;11252;50.596;17.648;2023-02-15T09:31:46;6.90;92.20
22173;DHT22;11252;50.596;17.648;2023-02-15T09:34:15;7.30;92.20
22173;DHT22;11252;50.596;17.648;2023-02-15T09:36:46;7.40;92.20
22173;DHT22;11252;50.596;17.648;2023-02-15T09:39:16;7.60;92.20
22173;DHT22;11252;50.596;17.648;2023-02-15T09:56:16;9.20;88.30
22173;DHT22;11252;50.596;17.648;2023-02-15T10:07:19;9.90;85.10
22173;DHT22;11252;50.596;17.648;2023-02-15T10:21:07;11.70;80.80
22173;DHT22;11252;50.596;17.648;2023-02-15T10:26:46;11.20;80.50
22173;DHT22;11252;50.596;17.648;2023-02-15T10:29:37;10.60;81.80
22173;DHT22;11252;50.596;17.648;2023-02-15T10:32:25;11.00;82.80
22173;DHT22;11252;50.596;17.648;2023-02-15T10:35:04;11.40;81.50
22173;DHT22;11252;50.596;17.648;2023-02-15T10:37:54;11.50;80.00
22173;DHT22;11252;50.596;17.648;2023-02-15T10:40:54;11.60;81.80
22173;DHT22;11252;50.596;17.648;2023-02-15T10:57:34;11.90;79.20
22173;DHT22;11252;50.596;17.648;2023-02-15T11:00:11;11.90;79.50
22173;DHT22;11252;50.596;17.648;2023-02-15T11:06:04;12.20;78.80
22173;DHT22;11252;50.596;17.648;2023-02-15T11:08:35;11.90;79.10
22173;DHT22;11252;50.596;17.648;2023-02-15T11:11:08;11.60;79.40
22173;DHT22;11252;50.596;17.648;2023-02-15T11:13:45;11.40;80.00
22173;DHT22;11252;50.596;17.648;2023-02-15T11:16:17;10.80;81.00
22173;DHT22;11252;50.596;17.648;2023-02-15T11:19:01;10.30;82.40
22173;DHT22;11252;50.596;17.648;2023-02-15T11:21:39;9.80;83.30
22173;DHT22;11252;50.596;17.648;2023-02-15T11:24:16;9.60;84.80
22173;DHT22;11252;50.596;17.648;2023-02-15T11:29:52;9.10;86.60
22173;DHT22;11252;50.596;17.648;2023-02-15T11:32:30;9.00;87.20
22173;DHT22;11252;50.596;17.648;2023-02-15T11:35:18;8.80;87.90
22173;DHT22;11252;50.596;17.648;2023-02-15T11:40:48;8.60;88.10
22173;DHT22;11252;50.596;17.648;2023-02-15T11:46:19;8.40;88.70
22173;DHT22;11252;50.596;17.648;2023-02-15T11:48:48;8.50;88.50
22173;DHT22;11252;50.596;17.648;2023-02-15T11:51:18;8.50;88.50
22173;DHT22;11252;50.596;17.648;2023-02-15T11:53:50;8.50;88.60
22173;DHT22;11252;50.596;17.648;2023-02-15T11:56:27;8.50;89.40
22173;DHT22;11252;50.596;17.648;2023-02-15T11:59:05;8.40;88.10
22173;DHT22;11252;50.596;17.648;2023-02-15T12:01:46;8.70;88.30
22173;DHT22;11252;50.596;17.648;2023-02-15T12:04:32;9.20;87.70
22173;DHT22;11252;50.596;17.648;2023-02-15T12:07:21;9.50;86.70
22173;DHT22;11252;50.596;17.648;2023-02-15T12:12:26;10.00;85.10
22173;DHT22;11252;50.596;17.648;2023-02-15T12:15:00;10.80;83.30
22173;DHT22;11252;50.596;17.648;2023-02-15T12:17:31;11.40;81.90
22173;DHT22;11252;50.596;17.648;2023-02-15T12:20:47;12.00;81.20
22173;DHT22;11252;50.596;17.648;2023-02-15T12:23:03;12.70;79.10
22173;DHT22;11252;50.596;17.648;2023-02-15T12:25:52;13.60;76.00
22173;DHT22;11252;50.596;17.648;2023-02-15T12:28:33;13.10;74.90
22173;DHT22;11252;50.596;17.648;2023-02-15T12:31:03;12.20;77.10
22173;DHT22;11252;50.596;17.648;2023-02-15T12:33:38;11.90;78.40
22173;DHT22;11252;50.596;17.648;2023-02-15T12:36:18;11.20;79.60
22173;DHT22;11252;50.596;17.648;2023-02-15T12:39:18;11.20;80.70
22173;DHT22;11252;50.596;17.648;2023-02-15T12:42:15;11.70;80.00
22173;DHT22;11252;50.596;17.648;2023-02-15T12:47:24;13.10;77.10
22173;DHT22;11252;50.596;17.648;2023-02-15T12:50:12;13.40;76.20
22173;DHT22;11252;50.596;17.648;2023-02-15T12:52:48;14.10;74.50
22173;DHT22;11252;50.596;17.648;2023-02-15T12:55:25;15.30;73.50
22173;DHT22;11252;50.596;17.648;2023-02-15T12:58:18;16.00;71.30
22173;DHT22;11252;50.596;17.648;2023-02-15T13:00:47;16.40;70.30
22173;DHT22;11252;50.596;17.648;2023-02-15T13:03:19;16.90;69.40
22173;DHT22;11252;50.596;17.648;2023-02-15T13:05:50;17.10;68.10
22173;DHT22;11252;50.596;17.648;2023-02-15T13:08:30;17.10;67.40
22173;DHT22;11252;50.596;17.648;2023-02-15T13:11:04;16.70;68.10
22173;DHT22;11252;50.596;17.648;2023-02-15T13:13:35;16.90;68.30
22173;DHT22;11252;50.596;17.648;2023-02-15T13:16:11;17.30;68.50
22173;DHT22;11252;50.596;17.648;2023-02-15T13:18:46;17.60;67.80
22173;DHT22;11252;50.596;17.648;2023-02-15T13:21:32;17.90;65.10
22173;DHT22;11252;50.596;17.648;2023-02-15T13:24:41;17.70;65.50
22173;DHT22;11252;50.596;17.648;2023-02-15T13:27:15;17.70;65.20
22173;DHT22;11252;50.596;17.648;2023-02-15T13:29:46;17.80;65.30
22173;DHT22;11252;50.596;17.648;2023-02-15T13:32:27;17.40;65.00
22173;DHT22;11252;50.596;17.648;2023-02-15T13:35:03;17.20;66.20
22173;DHT22;11252;50.596;17.648;2023-02-15T13:38:02;18.00;64.20
22173;DHT22;11252;50.596;17.648;2023-02-15T13:40:36;18.00;65.70
22173;DHT22;11252;50.596;17.648;2023-02-15T13:43:14;17.30;64.30
22173;DHT22;11252;50.596;17.648;2023-02-15T13:45:56;17.00;67.00
22173;DHT22;11252;50.596;17.648;2023-02-15T13:52:32;16.80;65.90
22173;DHT22;11252;50.596;17.648;2023-02-15T13:54:41;16.90;66.30
22173;DHT22;11252;50.596;17.648;2023-02-15T13:58:04;17.70;65.20
22173;DHT22;11252;50.596;17.648;2023-02-15T14:00:45;18.50;62.60
22173;DHT22;11252;50.596;17.648;2023-02-15T14:06:30;18.70;62.10
22173;DHT22;11252;50.596;17.648;2023-02-15T14:20:47;18.20;63.90
22173;DHT22;11252;50.596;17.648;2023-02-15T14:25:53;18.00;63.30
22173;DHT22;11252;50.596;17.648;2023-02-15T14:31:04;17.40;64.80
22173;DHT22;11252;50.596;17.648;2023-02-15T14:36:07;16.50;66.00
22173;DHT22;11252;50.596;17.648;2023-02-15T14:41:59;16.50;66.70
22173;DHT22;11252;50.596;17.648;2023-02-15T14:44:43;16.40;67.70
22173;DHT22;11252;50.596;17.648;2023-02-15T14:47:16;16.40;67.50
22173;DHT22;11252;50.596;17.648;2023-02-15T14:49:45;16.10;67.80
22173;DHT22;11252;50.596;17.648;2023-02-15T14:52:13;16.10;68.00
22173;DHT22;11252;50.596;17.648;2023-02-15T15:02:26;14.70;68.60
22173;DHT22;11252;50.596;17.648;2023-02-15T15:05:08;13.60;70.70
22173;DHT22;11252;50.596;17.648;2023-02-15T15:07:43;12.80;72.70
22173;DHT22;11252;50.596;17.648;2023-02-15T15:12:50;11.20;77.10
22173;DHT22;11252;50.596;17.648;2023-02-15T15:18:08;10.50;80.00
22173;DHT22;11252;50.596;17.648;2023-02-15T15:20:50;10.10;80.70
22173;DHT22;11252;50.596;17.648;2023-02-15T15:31:35;9.10;84.60
22173;DHT22;11252;50.596;17.648;2023-02-15T15:42:48;9.60;84.50
22173;DHT22;11252;50.596;17.648;2023-02-15T15:50:50;9.20;85.70
22173;DHT22;11252;50.596;17.648;2023-02-15T15:53:24;9.10;86.00
22173;DHT22;11252;50.596;17.648;2023-02-15T15:55:56;8.90;86.50
22173;DHT22;11252;50.596;17.648;2023-02-15T15:58:28;8.70;87.30
22173;DHT22;11252;50.596;17.648;2023-02-15T16:01:07;8.50;87.90
22173;DHT22;11252;50.596;17.648;2023-02-15T16:03:36;8.30;88.80
22173;DHT22;11252;50.596;17.648;2023-02-15T16:06:03;8.20;89.40
22173;DHT22;11252;50.596;17.648;2023-02-15T16:08:35;8.10;90.00
22173;DHT22;11252;50.596;17.648;2023-02-15T16:11:24;7.90;90.40
22173;DHT22;11252;50.596;17.648;2023-02-15T16:13:52;7.70;91.10
22173;DHT22;11252;50.596;17.648;2023-02-15T16:16:29;7.60;91.60
22173;DHT22;11252;50.596;17.648;2023-02-15T16:18:58;7.30;92.20
22173;DHT22;11252;50.596;17.648;2023-02-15T16:21:34;7.10;92.20
22173;DHT22;11252;50.596;17.648;2023-02-15T16:29:42;6.80;92.20
22173;DHT22;11252;50.596;17.648;2023-02-15T16:32:24;6.70;92.20
22173;DHT22;11252;50.596;17.648;2023-02-15T16:35:00;6.70;92.20
22173;DHT22;11252;50.596;17.648;2023-02-15T16:37:33;6.60;92.20
22173;DHT22;11252;50.596;17.648;2023-02-15T16:40:01;6.50;92.20
22173;DHT22;11252;50.596;17.648;2023-02-15T16:42:28;6.30;92.20
22173;DHT22;11252;50.596;17.648;2023-02-15T16:45:16;6.00;92.20
22173;DHT22;11252;50.596;17.648;2023-02-15T16:47:47;5.70;92.20
22173;DHT22;11252;50.596;17.648;2023-02-15T16:50:21;5.70;92.20
22173;DHT22;11252;50.596;17.648;2023-02-15T16:52:50;5.50;92.20
22173;DHT22;11252;50.596;17.648;2023-02-15T16:55:27;5.40;92.20
22173;DHT22;11252;50.596;17.648;2023-02-15T16:57:57;5.30;92.20
22173;DHT22;11252;50.596;17.648;2023-02-15T17:00:32;5.30;92.20
22173;DHT22;11252;50.596;17.648;2023-02-15T17:05:48;5.20;92.20
22173;DHT22;11252;50.596;17.648;2023-02-15T17:08:17;5.20;92.20
22173;DHT22;11252;50.596;17.648;2023-02-15T17:11:05;5.20;92.20
22173;DHT22;11252;50.596;17.648;2023-02-15T17:13:38;5.20;92.20
22173;DHT22;11252;50.596;17.648;2023-02-15T17:16:23;5.10;92.20
22173;DHT22;11252;50.596;17.648;2023-02-15T17:18:53;5.10;92.20
22173;DHT22;11252;50.596;17.648;2023-02-15T17:21:32;5.00;92.20
22173;DHT22;11252;50.596;17.648;2023-02-15T17:24:01;4.80;92.20
22173;DHT22;11252;50.596;17.648;2023-02-15T17:26:34;4.80;92.20
22173;DHT22;11252;50.596;17.648;2023-02-15T17:29:22;4.70;92.20
22173;DHT22;11252;50.596;17.648;2023-02-15T17:31:51;4.70;92.20
22173;DHT22;11252;50.596;17.648;2023-02-15T17:39:51;4.60;92.20
22173;DHT22;11252;50.596;17.648;2023-02-15T17:42:19;4.50;92.20
22173;DHT22;11252;50.596;17.648;2023-02-15T17:44:46;4.40;92.20
22173;DHT22;11252;50.596;17.648;2023-02-15T17:47:20;4.30;92.20
22173;DHT22;11252;50.596;17.648;2023-02-15T17:49:48;4.20;92.20
22173;DHT22;11252;50.596;17.648;2023-02-15T17:52:18;4.10;92.20
22173;DHT22;11252;50.596;17.648;2023-02-15T17:54:45;4.10;92.20
22173;DHT22;11252;50.596;17.648;2023-02-15T17:57:32;4.00;92.20
22173;DHT22;11252;50.596;17.648;2023-02-15T17:59:59;3.90;92.20
22173;DHT22;11252;50.596;17.648;2023-02-15T18:02:46;3.90;92.20
22173;DHT22;11252;50.596;17.648;2023-02-15T18:05:32;3.80;92.20
22173;DHT22;11252;50.596;17.648;2023-02-15T18:08:25;3.80;92.20
22173;DHT22;11252;50.596;17.648;2023-02-15T18:11:12;3.70;92.20
22173;DHT22;11252;50.596;17.648;2023-02-15T18:13:58;3.60;92.20
22173;DHT22;11252;50.596;17.648;2023-02-15T18:16:34;3.50;92.20
22173;DHT22;11252;50.596;17.648;2023-02-15T18:19:04;3.50;92.20
22173;DHT22;11252;50.596;17.648;2023-02-15T18:21:32;3.40;92.20
22173;DHT22;11252;50.596;17.648;2023-02-15T18:24:00;3.30;92.20
22173;DHT22;11252;50.596;17.648;2023-02-15T18:26:29;3.30;92.20
22173;DHT22;11252;50.596;17.648;2023-02-15T18:28:56;3.20;92.20
22173;DHT22;11252;50.596;17.648;2023-02-15T18:31:24;3.10;92.20
22173;DHT22;11252;50.596;17.648;2023-02-15T18:33:57;3.10;92.20
22173;DHT22;11252;50.596;17.648;2023-02-15T18:36:39;3.10;92.20
22173;DHT22;11252;50.596;17.648;2023-02-15T18:39:34;3.00;92.20
22173;DHT22;11252;50.596;17.648;2023-02-15T18:42:03;2.90;92.20
22173;DHT22;11252;50.596;17.648;2023-02-15T18:44:31;2.80;92.20
22173;DHT22;11252;50.596;17.648;2023-02-15T18:46:58;2.80;92.20
22173;DHT22;11252;50.596;17.648;2023-02-15T18:49:26;2.70;92.20
22173;DHT22;11252;50.596;17.648;2023-02-15T18:51:53;2.60;92.20
22173;DHT22;11252;50.596;17.648;2023-02-15T18:54:22;2.60;92.20